sensor_id;sensor_type;location;lat;lon;timestamp;P1;durP1;ratioP1;P2;durP2;ratioP2
1947;SDS011;974;52.400;9.818;2023-07-13T00:01:28;1.90;;;0.60;;
1947;SDS011;974;52.400;9.818;2023-07-13T00:03:55;1.90;;;0.60;;
1947;SDS011;974;52.400;9.818;2023-07-13T00:06:21;1.90;;;0.60;;
1947;SDS011;974;52.400;9.818;2023-07-13T00:08:47;1.90;;;0.60;;
1947;SDS011;974;52.400;9.818;2023-07-13T00:11:14;1.90;;;0.60;;
1947;SDS011;974;52.400;9.818;2023-07-13T00:13:40;1.90;;;0.60;;
1947;SDS011;974;52.400;9.818;2023-07-13T00:16:06;1.90;;;0.60;;
1947;SDS011;974;52.400;9.818;2023-07-13T00:18:32;1.90;;;0.60;;
1947;SDS011;974;52.400;9.818;2023-07-13T00:20:57;1.90;;;0.60;;
1947;SDS011;974;52.400;9.818;2023-07-13T00:23:31;1.90;;;0.60;;
1947;SDS011;974;52.400;9.818;2023-07-13T00:26:02;1.90;;;0.60;;
1947;SDS011;974;52.400;9.818;2023-07-13T00:28:28;1.90;;;0.60;;
1947;SDS011;974;52.400;9.818;2023-07-13T00:30:54;1.90;;;0.60;;
1947;SDS011;974;52.400;9.818;2023-07-13T00:33:19;1.90;;;0.60;;
1947;SDS011;974;52.400;9.818;2023-07-13T00:35:45;1.90;;;0.60;;
1947;SDS011;974;52.400;9.818;2023-07-13T00:38:11;1.90;;;0.60;;
1947;SDS011;974;52.400;9.818;2023-07-13T00:40:36;1.90;;;0.60;;
1947;SDS011;974;52.400;9.818;2023-07-13T00:43:02;1.90;;;0.60;;
1947;SDS011;974;52.400;9.818;2023-07-13T00:47:55;1.90;;;0.60;;
1947;SDS011;974;52.400;9.818;2023-07-13T00:50:22;1.90;;;0.60;;
1947;SDS011;974;52.400;9.818;2023-07-13T00:52:50;1.90;;;0.60;;
1947;SDS011;974;52.400;9.818;2023-07-13T00:55:19;1.90;;;0.60;;
1947;SDS011;974;52.400;9.818;2023-07-13T00:57:46;1.90;;;0.60;;
1947;SDS011;974;52.400;9.818;2023-07-13T01:00:11;1.90;;;0.60;;
1947;SDS011;974;52.400;9.818;2023-07-13T01:02:38;1.90;;;0.60;;
1947;SDS011;974;52.400;9.818;2023-07-13T01:05:09;1.90;;;0.60;;
1947;SDS011;974;52.400;9.818;2023-07-13T01:07:36;1.90;;;0.60;;
1947;SDS011;974;52.400;9.818;2023-07-13T01:10:02;1.90;;;0.60;;
1947;SDS011;974;52.400;9.818;2023-07-13T01:12:28;1.90;;;0.60;;
1947;SDS011;974;52.400;9.818;2023-07-13T01:14:59;1.90;;;0.60;;
1947;SDS011;974;52.400;9.818;2023-07-13T01:17:25;1.90;;;0.60;;
1947;SDS011;974;52.400;9.818;2023-07-13T01:19:51;1.90;;;0.60;;
1947;SDS011;974;52.400;9.818;2023-07-13T01:22:18;1.90;;;0.60;;
1947;SDS011;974;52.400;9.818;2023-07-13T01:24:45;1.92;;;0.60;;
1947;SDS011;974;52.400;9.818;2023-07-13T01:27:13;1.98;;;0.60;;
1947;SDS011;974;52.400;9.818;2023-07-13T01:29:41;1.90;;;0.60;;
1947;SDS011;974;52.400;9.818;2023-07-13T01:32:08;1.92;;;0.60;;
1947;SDS011;974;52.400;9.818;2023-07-13T01:34:36;1.90;;;0.60;;
1947;SDS011;974;52.400;9.818;2023-07-13T01:37:02;1.90;;;0.60;;
1947;SDS011;974;52.400;9.818;2023-07-13T01:39:28;1.90;;;0.60;;
1947;SDS011;974;52.400;9.818;2023-07-13T01:41:54;1.90;;;0.60;;
1947;SDS011;974;52.400;9.818;2023-07-13T01:44:19;1.93;;;0.60;;
1947;SDS011;974;52.400;9.818;2023-07-13T01:46:45;1.93;;;0.60;;
1947;SDS011;974;52.400;9.818;2023-07-13T01:49:11;1.90;;;0.60;;
1947;SDS011;974;52.400;9.818;2023-07-13T01:51:36;1.90;;;0.60;;
1947;SDS011;974;52.400;9.818;2023-07-13T01:54:02;1.90;;;0.60;;
1947;SDS011;974;52.400;9.818;2023-07-13T01:56:27;1.90;;;0.60;;
1947;SDS011;974;52.400;9.818;2023-07-13T01:58:53;1.90;;;0.60;;
1947;SDS011;974;52.400;9.818;2023-07-13T02:01:18;1.90;;;0.60;;
1947;SDS011;974;52.400;9.818;2023-07-13T02:03:44;1.93;;;0.60;;
1947;SDS011;974;52.400;9.818;2023-07-13T02:06:09;1.90;;;0.60;;
1947;SDS011;974;52.400;9.818;2023-07-13T02:08:35;1.90;;;0.60;;
1947;SDS011;974;52.400;9.818;2023-07-13T02:11:02;1.90;;;0.60;;
1947;SDS011;974;52.400;9.818;2023-07-13T02:13:28;1.92;;;0.60;;
1947;SDS011;974;52.400;9.818;2023-07-13T02:15:53;1.90;;;0.60;;
1947;SDS011;974;52.400;9.818;2023-07-13T02:18:19;1.90;;;0.60;;
1947;SDS011;974;52.400;9.818;2023-07-13T02:20:44;2.00;;;0.60;;
1947;SDS011;974;52.400;9.818;2023-07-13T02:23:10;1.90;;;0.60;;
1947;SDS011;974;52.400;9.818;2023-07-13T02:25:36;1.90;;;0.60;;
1947;SDS011;974;52.400;9.818;2023-07-13T02:28:01;1.90;;;0.60;;
1947;SDS011;974;52.400;9.818;2023-07-13T02:30:27;1.90;;;0.60;;
1947;SDS011;974;52.400;9.818;2023-07-13T02:32:54;1.90;;;0.60;;
1947;SDS011;974;52.400;9.818;2023-07-13T02:35:20;1.90;;;0.60;;
1947;SDS011;974;52.400;9.818;2023-07-13T02:37:46;1.90;;;0.60;;
1947;SDS011;974;52.400;9.818;2023-07-13T02:40:11;1.90;;;0.60;;
1947;SDS011;974;52.400;9.818;2023-07-13T02:42:37;1.90;;;0.60;;
1947;SDS011;974;52.400;9.818;2023-07-13T02:45:03;1.90;;;0.60;;
1947;SDS011;974;52.400;9.818;2023-07-13T02:47:29;1.90;;;0.60;;
1947;SDS011;974;52.400;9.818;2023-07-13T02:49:54;1.90;;;0.60;;
1947;SDS011;974;52.400;9.818;2023-07-13T02:52:19;1.90;;;0.60;;
1947;SDS011;974;52.400;9.818;2023-07-13T02:54:45;1.90;;;0.60;;
1947;SDS011;974;52.400;9.818;2023-07-13T02:57:11;1.90;;;0.60;;
1947;SDS011;974;52.400;9.818;2023-07-13T02:59:36;1.90;;;0.60;;
1947;SDS011;974;52.400;9.818;2023-07-13T03:02:02;1.90;;;0.60;;
1947;SDS011;974;52.400;9.818;2023-07-13T03:04:28;1.90;;;0.60;;
1947;SDS011;974;52.400;9.818;2023-07-13T03:06:54;1.90;;;0.60;;
1947;SDS011;974;52.400;9.818;2023-07-13T03:09:22;1.90;;;0.60;;
1947;SDS011;974;52.400;9.818;2023-07-13T03:11:49;1.90;;;0.60;;
1947;SDS011;974;52.400;9.818;2023-07-13T03:14:16;1.90;;;0.60;;
1947;SDS011;974;52.400;9.818;2023-07-13T03:16:42;1.90;;;0.60;;
1947;SDS011;974;52.400;9.818;2023-07-13T03:19:07;1.90;;;0.60;;
1947;SDS011;974;52.400;9.818;2023-07-13T03:21:34;1.90;;;0.60;;
1947;SDS011;974;52.400;9.818;2023-07-13T03:23:59;1.90;;;0.60;;
1947;SDS011;974;52.400;9.818;2023-07-13T03:26:25;1.90;;;0.60;;
1947;SDS011;974;52.400;9.818;2023-07-13T03:28:50;1.90;;;0.60;;
1947;SDS011;974;52.400;9.818;2023-07-13T03:31:17;1.90;;;0.60;;
1947;SDS011;974;52.400;9.818;2023-07-13T03:33:44;1.90;;;0.60;;
1947;SDS011;974;52.400;9.818;2023-07-13T03:36:12;1.90;;;0.60;;
1947;SDS011;974;52.400;9.818;2023-07-13T03:38:51;1.90;;;0.60;;
1947;SDS011;974;52.400;9.818;2023-07-13T03:41:18;1.90;;;0.60;;
1947;SDS011;974;52.400;9.818;2023-07-13T03:43:44;1.90;;;0.60;;
1947;SDS011;974;52.400;9.818;2023-07-13T03:46:10;1.90;;;0.60;;
1947;SDS011;974;52.400;9.818;2023-07-13T03:48:36;1.90;;;0.60;;
1947;SDS011;974;52.400;9.818;2023-07-13T03:51:01;1.90;;;0.60;;
1947;SDS011;974;52.400;9.818;2023-07-13T03:53:27;1.90;;;0.60;;
1947;SDS011;974;52.400;9.818;2023-07-13T03:55:52;1.90;;;0.60;;
1947;SDS011;974;52.400;9.818;2023-07-13T03:58:34;1.90;;;0.60;;
1947;SDS011;974;52.400;9.818;2023-07-13T04:01:05;1.90;;;0.60;;
1947;SDS011;974;52.400;9.818;2023-07-13T04:03:32;1.90;;;0.60;;
1947;SDS011;974;52.400;9.818;2023-07-13T04:05:58;1.90;;;0.60;;
1947;SDS011;974;52.400;9.818;2023-07-13T04:08:26;1.90;;;0.60;;
1947;SDS011;974;52.400;9.818;2023-07-13T04:10:52;1.90;;;0.60;;
1947;SDS011;974;52.400;9.818;2023-07-13T04:13:18;1.90;;;0.60;;
1947;SDS011;974;52.400;9.818;2023-07-13T04:15:43;1.90;;;0.60;;
1947;SDS011;974;52.400;9.818;2023-07-13T04:18:09;1.90;;;0.60;;
1947;SDS011;974;52.400;9.818;2023-07-13T04:20:34;1.90;;;0.60;;
1947;SDS011;974;52.400;9.818;2023-07-13T04:23:00;1.90;;;0.60;;
1947;SDS011;974;52.400;9.818;2023-07-13T04:25:26;1.90;;;0.60;;
1947;SDS011;974;52.400;9.818;2023-07-13T04:27:52;1.90;;;0.60;;
1947;SDS011;974;52.400;9.818;2023-07-13T04:30:18;1.90;;;0.60;;
1947;SDS011;974;52.400;9.818;2023-07-13T04:32:45;1.90;;;0.60;;
1947;SDS011;974;52.400;9.818;2023-07-13T04:35:11;1.90;;;0.60;;
1947;SDS011;974;52.400;9.818;2023-07-13T04:37:36;1.90;;;0.60;;
1947;SDS011;974;52.400;9.818;2023-07-13T04:40:02;1.90;;;0.60;;
1947;SDS011;974;52.400;9.818;2023-07-13T04:42:28;1.90;;;0.60;;
1947;SDS011;974;52.400;9.818;2023-07-13T04:44:54;1.90;;;0.60;;
1947;SDS011;974;52.400;9.818;2023-07-13T04:47:20;1.90;;;0.60;;
1947;SDS011;974;52.400;9.818;2023-07-13T04:49:45;1.90;;;0.60;;
1947;SDS011;974;52.400;9.818;2023-07-13T04:52:11;1.90;;;0.60;;
1947;SDS011;974;52.400;9.818;2023-07-13T04:54:37;1.90;;;0.60;;
1947;SDS011;974;52.400;9.818;2023-07-13T04:57:03;1.90;;;0.60;;
1947;SDS011;974;52.400;9.818;2023-07-13T04:59:32;1.90;;;0.60;;
1947;SDS011;974;52.400;9.818;2023-07-13T05:01:58;1.90;;;0.60;;
1947;SDS011;974;52.400;9.818;2023-07-13T05:04:23;1.90;;;0.60;;
1947;SDS011;974;52.400;9.818;2023-07-13T05:06:49;1.90;;;0.60;;
1947;SDS011;974;52.400;9.818;2023-07-13T05:09:14;1.90;;;0.60;;
1947;SDS011;974;52.400;9.818;2023-07-13T05:11:40;1.90;;;0.60;;
1947;SDS011;974;52.400;9.818;2023-07-13T05:14:05;1.90;;;0.60;;
1947;SDS011;974;52.400;9.818;2023-07-13T05:16:31;1.90;;;0.60;;
1947;SDS011;974;52.400;9.818;2023-07-13T05:18:57;1.90;;;0.60;;
1947;SDS011;974;52.400;9.818;2023-07-13T05:21:23;1.90;;;0.60;;
1947;SDS011;974;52.400;9.818;2023-07-13T05:23:49;1.90;;;0.60;;
1947;SDS011;974;52.400;9.818;2023-07-13T05:26:15;1.90;;;0.60;;
1947;SDS011;974;52.400;9.818;2023-07-13T05:28:40;1.90;;;0.60;;
1947;SDS011;974;52.400;9.818;2023-07-13T05:31:07;1.90;;;0.60;;
1947;SDS011;974;52.400;9.818;2023-07-13T05:33:33;1.90;;;0.60;;
1947;SDS011;974;52.400;9.818;2023-07-13T05:35:59;1.90;;;0.60;;
1947;SDS011;974;52.400;9.818;2023-07-13T05:38:25;1.90;;;0.60;;
1947;SDS011;974;52.400;9.818;2023-07-13T05:40:53;1.90;;;0.60;;
1947;SDS011;974;52.400;9.818;2023-07-13T05:43:20;1.90;;;0.60;;
1947;SDS011;974;52.400;9.818;2023-07-13T05:45:45;1.90;;;0.60;;
1947;SDS011;974;52.400;9.818;2023-07-13T05:48:11;1.90;;;0.60;;
1947;SDS011;974;52.400;9.818;2023-07-13T05:50:36;1.90;;;0.60;;
1947;SDS011;974;52.400;9.818;2023-07-13T05:53:02;1.90;;;0.60;;
1947;SDS011;974;52.400;9.818;2023-07-13T05:55:28;1.90;;;0.60;;
1947;SDS011;974;52.400;9.818;2023-07-13T05:57:53;2.10;;;0.70;;
1947;SDS011;974;52.400;9.818;2023-07-13T06:00:19;1.90;;;0.60;;
1947;SDS011;974;52.400;9.818;2023-07-13T06:02:45;1.90;;;0.60;;
1947;SDS011;974;52.400;9.818;2023-07-13T06:05:10;1.90;;;0.60;;
1947;SDS011;974;52.400;9.818;2023-07-13T06:07:36;1.90;;;0.60;;
1947;SDS011;974;52.400;9.818;2023-07-13T06:10:02;1.90;;;0.60;;
1947;SDS011;974;52.400;9.818;2023-07-13T06:12:28;1.90;;;0.60;;
1947;SDS011;974;52.400;9.818;2023-07-13T06:14:53;1.90;;;0.60;;
1947;SDS011;974;52.400;9.818;2023-07-13T06:17:19;1.90;;;0.60;;
1947;SDS011;974;52.400;9.818;2023-07-13T06:19:44;1.90;;;0.60;;
1947;SDS011;974;52.400;9.818;2023-07-13T06:22:10;1.90;;;0.60;;
1947;SDS011;974;52.400;9.818;2023-07-13T06:24:35;1.90;;;0.60;;
1947;SDS011;974;52.400;9.818;2023-07-13T06:27:01;1.90;;;0.60;;
1947;SDS011;974;52.400;9.818;2023-07-13T06:29:26;1.90;;;0.60;;
1947;SDS011;974;52.400;9.818;2023-07-13T06:31:52;1.90;;;0.60;;
1947;SDS011;974;52.400;9.818;2023-07-13T06:34:18;1.90;;;0.60;;
1947;SDS011;974;52.400;9.818;2023-07-13T06:36:43;1.90;;;0.60;;
1947;SDS011;974;52.400;9.818;2023-07-13T06:39:09;1.90;;;0.60;;
1947;SDS011;974;52.400;9.818;2023-07-13T06:41:35;1.90;;;0.60;;
1947;SDS011;974;52.400;9.818;2023-07-13T06:44:00;1.90;;;0.60;;
1947;SDS011;974;52.400;9.818;2023-07-13T06:46:25;1.90;;;0.60;;
1947;SDS011;974;52.400;9.818;2023-07-13T06:48:53;1.90;;;0.60;;
1947;SDS011;974;52.400;9.818;2023-07-13T06:51:19;1.90;;;0.60;;
1947;SDS011;974;52.400;9.818;2023-07-13T06:53:44;1.90;;;0.60;;
1947;SDS011;974;52.400;9.818;2023-07-13T06:56:10;1.90;;;0.60;;
1947;SDS011;974;52.400;9.818;2023-07-13T06:58:36;1.90;;;0.60;;
1947;SDS011;974;52.400;9.818;2023-07-13T07:01:02;1.90;;;0.60;;
1947;SDS011;974;52.400;9.818;2023-07-13T07:03:28;1.90;;;0.60;;
1947;SDS011;974;52.400;9.818;2023-07-13T07:05:53;1.90;;;0.60;;
1947;SDS011;974;52.400;9.818;2023-07-13T07:08:19;1.90;;;0.60;;
1947;SDS011;974;52.400;9.818;2023-07-13T07:10:44;1.90;;;0.60;;
1947;SDS011;974;52.400;9.818;2023-07-13T07:13:10;1.90;;;0.60;;
1947;SDS011;974;52.400;9.818;2023-07-13T07:15:36;1.90;;;0.60;;
1947;SDS011;974;52.400;9.818;2023-07-13T07:18:01;1.97;;;0.60;;
1947;SDS011;974;52.400;9.818;2023-07-13T07:20:27;1.90;;;0.60;;
1947;SDS011;974;52.400;9.818;2023-07-13T07:22:52;1.90;;;0.60;;
1947;SDS011;974;52.400;9.818;2023-07-13T07:25:18;1.90;;;0.60;;
1947;SDS011;974;52.400;9.818;2023-07-13T07:27:44;1.90;;;0.60;;
1947;SDS011;974;52.400;9.818;2023-07-13T07:30:11;1.90;;;0.60;;
1947;SDS011;974;52.400;9.818;2023-07-13T07:32:37;1.90;;;0.60;;
1947;SDS011;974;52.400;9.818;2023-07-13T07:35:02;1.90;;;0.60;;
1947;SDS011;974;52.400;9.818;2023-07-13T07:37:28;1.90;;;0.60;;
1947;SDS011;974;52.400;9.818;2023-07-13T07:39:53;1.90;;;0.60;;
1947;SDS011;974;52.400;9.818;2023-07-13T07:42:19;1.90;;;0.60;;
1947;SDS011;974;52.400;9.818;2023-07-13T07:44:45;1.90;;;0.60;;
1947;SDS011;974;52.400;9.818;2023-07-13T07:47:10;1.90;;;0.60;;
1947;SDS011;974;52.400;9.818;2023-07-13T07:49:36;1.90;;;0.60;;
1947;SDS011;974;52.400;9.818;2023-07-13T07:52:01;1.90;;;0.60;;
1947;SDS011;974;52.400;9.818;2023-07-13T07:54:27;1.90;;;0.60;;
1947;SDS011;974;52.400;9.818;2023-07-13T07:56:53;1.90;;;0.60;;
1947;SDS011;974;52.400;9.818;2023-07-13T07:59:18;1.90;;;0.60;;
1947;SDS011;974;52.400;9.818;2023-07-13T08:01:44;1.90;;;0.60;;
1947;SDS011;974;52.400;9.818;2023-07-13T08:04:11;1.90;;;0.60;;
1947;SDS011;974;52.400;9.818;2023-07-13T08:06:37;1.90;;;0.60;;
1947;SDS011;974;52.400;9.818;2023-07-13T08:09:02;1.90;;;0.60;;
1947;SDS011;974;52.400;9.818;2023-07-13T08:11:29;1.90;;;0.60;;
1947;SDS011;974;52.400;9.818;2023-07-13T08:13:55;1.90;;;0.60;;
1947;SDS011;974;52.400;9.818;2023-07-13T08:16:20;1.90;;;0.60;;
1947;SDS011;974;52.400;9.818;2023-07-13T08:18:47;1.90;;;0.60;;
1947;SDS011;974;52.400;9.818;2023-07-13T08:21:12;1.90;;;0.60;;
1947;SDS011;974;52.400;9.818;2023-07-13T08:23:37;1.90;;;0.60;;
1947;SDS011;974;52.400;9.818;2023-07-13T08:26:03;1.90;;;0.60;;
1947;SDS011;974;52.400;9.818;2023-07-13T08:28:29;1.90;;;0.60;;
1947;SDS011;974;52.400;9.818;2023-07-13T08:31:00;1.90;;;0.60;;
1947;SDS011;974;52.400;9.818;2023-07-13T08:33:29;1.90;;;0.60;;
1947;SDS011;974;52.400;9.818;2023-07-13T08:35:55;1.90;;;0.60;;
1947;SDS011;974;52.400;9.818;2023-07-13T08:38:20;1.90;;;0.60;;
1947;SDS011;974;52.400;9.818;2023-07-13T08:40:51;1.90;;;0.60;;
1947;SDS011;974;52.400;9.818;2023-07-13T08:43:21;1.90;;;0.60;;
1947;SDS011;974;52.400;9.818;2023-07-13T08:45:56;1.90;;;0.60;;
1947;SDS011;974;52.400;9.818;2023-07-13T08:48:41;1.90;;;0.60;;
1947;SDS011;974;52.400;9.818;2023-07-13T08:51:23;1.90;;;0.60;;
1947;SDS011;974;52.400;9.818;2023-07-13T08:54:09;1.90;;;0.60;;
1947;SDS011;974;52.400;9.818;2023-07-13T08:56:42;1.90;;;0.60;;
1947;SDS011;974;52.400;9.818;2023-07-13T08:59:12;1.90;;;0.60;;
1947;SDS011;974;52.400;9.818;2023-07-13T09:02:00;1.90;;;0.60;;
1947;SDS011;974;52.400;9.818;2023-07-13T09:04:50;1.90;;;0.60;;
1947;SDS011;974;52.400;9.818;2023-07-13T09:07:34;1.90;;;0.60;;
1947;SDS011;974;52.400;9.818;2023-07-13T09:10:46;1.90;;;0.60;;
1947;SDS011;974;52.400;9.818;2023-07-13T09:16:08;1.90;;;0.60;;
1947;SDS011;974;52.400;9.818;2023-07-13T09:18:36;1.90;;;0.60;;
1947;SDS011;974;52.400;9.818;2023-07-13T09:21:13;1.90;;;0.60;;
1947;SDS011;974;52.400;9.818;2023-07-13T09:23:42;1.90;;;0.60;;
1947;SDS011;974;52.400;9.818;2023-07-13T09:26:22;1.90;;;0.60;;
1947;SDS011;974;52.400;9.818;2023-07-13T09:28:49;1.90;;;0.60;;
1947;SDS011;974;52.400;9.818;2023-07-13T09:31:23;1.90;;;0.60;;
1947;SDS011;974;52.400;9.818;2023-07-13T09:33:58;1.90;;;0.60;;
1947;SDS011;974;52.400;9.818;2023-07-13T09:36:25;1.90;;;0.60;;
1947;SDS011;974;52.400;9.818;2023-07-13T09:39:03;1.90;;;0.60;;
1947;SDS011;974;52.400;9.818;2023-07-13T09:41:41;1.90;;;0.60;;
1947;SDS011;974;52.400;9.818;2023-07-13T09:44:26;1.90;;;0.60;;
1947;SDS011;974;52.400;9.818;2023-07-13T09:46:58;1.90;;;0.60;;
1947;SDS011;974;52.400;9.818;2023-07-13T09:49:24;1.90;;;0.60;;
1947;SDS011;974;52.400;9.818;2023-07-13T09:51:57;1.90;;;0.60;;
1947;SDS011;974;52.400;9.818;2023-07-13T09:54:25;1.90;;;0.60;;
1947;SDS011;974;52.400;9.818;2023-07-13T09:56:55;1.90;;;0.60;;
1947;SDS011;974;52.400;9.818;2023-07-13T09:59:22;1.90;;;0.60;;
1947;SDS011;974;52.400;9.818;2023-07-13T10:01:49;1.80;;;0.60;;
1947;SDS011;974;52.400;9.818;2023-07-13T10:04:18;1.90;;;0.60;;
1947;SDS011;974;52.400;9.818;2023-07-13T10:06:45;1.90;;;0.60;;
1947;SDS011;974;52.400;9.818;2023-07-13T10:09:15;1.90;;;0.60;;
1947;SDS011;974;52.400;9.818;2023-07-13T10:11:41;1.90;;;0.60;;
1947;SDS011;974;52.400;9.818;2023-07-13T10:14:12;1.87;;;0.60;;
1947;SDS011;974;52.400;9.818;2023-07-13T10:16:43;1.90;;;0.60;;
1947;SDS011;974;52.400;9.818;2023-07-13T10:19:26;1.83;;;0.60;;
1947;SDS011;974;52.400;9.818;2023-07-13T10:21:57;1.90;;;0.60;;
1947;SDS011;974;52.400;9.818;2023-07-13T10:24:29;1.90;;;0.60;;
1947;SDS011;974;52.400;9.818;2023-07-13T10:27:05;1.90;;;0.60;;
1947;SDS011;974;52.400;9.818;2023-07-13T10:29:42;1.90;;;0.60;;
1947;SDS011;974;52.400;9.818;2023-07-13T10:32:33;1.90;;;0.60;;
1947;SDS011;974;52.400;9.818;2023-07-13T10:34:59;1.90;;;0.60;;
1947;SDS011;974;52.400;9.818;2023-07-13T10:37:26;1.90;;;0.60;;
1947;SDS011;974;52.400;9.818;2023-07-13T10:39:56;2.00;;;0.60;;
1947;SDS011;974;52.400;9.818;2023-07-13T10:42:35;1.90;;;0.60;;
1947;SDS011;974;52.400;9.818;2023-07-13T10:45:22;2.10;;;0.70;;
1947;SDS011;974;52.400;9.818;2023-07-13T10:47:50;1.90;;;0.60;;
1947;SDS011;974;52.400;9.818;2023-07-13T10:50:27;1.90;;;0.60;;
1947;SDS011;974;52.400;9.818;2023-07-13T10:52:55;1.90;;;0.60;;
1947;SDS011;974;52.400;9.818;2023-07-13T10:55:40;1.90;;;0.60;;
1947;SDS011;974;52.400;9.818;2023-07-13T10:58:22;1.90;;;0.60;;
1947;SDS011;974;52.400;9.818;2023-07-13T11:01:16;1.90;;;0.60;;
1947;SDS011;974;52.400;9.818;2023-07-13T11:06:29;1.90;;;0.60;;
1947;SDS011;974;52.400;9.818;2023-07-13T11:08:59;1.90;;;0.60;;
1947;SDS011;974;52.400;9.818;2023-07-13T11:11:44;1.90;;;0.60;;
1947;SDS011;974;52.400;9.818;2023-07-13T11:14:25;1.90;;;0.60;;
1947;SDS011;974;52.400;9.818;2023-07-13T11:16:53;1.90;;;0.60;;
1947;SDS011;974;52.400;9.818;2023-07-13T11:24:48;1.90;;;0.60;;
1947;SDS011;974;52.400;9.818;2023-07-13T11:27:46;2.00;;;0.60;;
1947;SDS011;974;52.400;9.818;2023-07-13T11:30:31;1.90;;;0.60;;
1947;SDS011;974;52.400;9.818;2023-07-13T11:36:05;1.90;;;0.60;;
1947;SDS011;974;52.400;9.818;2023-07-13T11:38:40;1.90;;;0.60;;
1947;SDS011;974;52.400;9.818;2023-07-13T11:43:42;1.90;;;0.60;;
1947;SDS011;974;52.400;9.818;2023-07-13T11:46:21;1.90;;;0.60;;
1947;SDS011;974;52.400;9.818;2023-07-13T11:48:49;2.00;;;0.60;;
1947;SDS011;974;52.400;9.818;2023-07-13T11:51:25;2.00;;;0.60;;
1947;SDS011;974;52.400;9.818;2023-07-13T11:53:53;2.00;;;0.60;;
1947;SDS011;974;52.400;9.818;2023-07-13T11:56:21;2.00;;;0.60;;
1947;SDS011;974;52.400;9.818;2023-07-13T11:58:49;2.00;;;0.60;;
1947;SDS011;974;52.400;9.818;2023-07-13T12:01:20;2.00;;;0.60;;
1947;SDS011;974;52.400;9.818;2023-07-13T12:03:47;2.00;;;0.60;;
1947;SDS011;974;52.400;9.818;2023-07-13T12:06:35;2.00;;;0.60;;
1947;SDS011;974;52.400;9.818;2023-07-13T12:09:02;2.00;;;0.60;;
1947;SDS011;974;52.400;9.818;2023-07-13T12:11:37;2.00;;;0.60;;
1947;SDS011;974;52.400;9.818;2023-07-13T12:14:04;2.00;;;0.60;;
1947;SDS011;974;52.400;9.818;2023-07-13T12:16:31;2.00;;;0.60;;
1947;SDS011;974;52.400;9.818;2023-07-13T12:18:58;2.00;;;0.60;;
1947;SDS011;974;52.400;9.818;2023-07-13T12:21:30;2.00;;;0.60;;
1947;SDS011;974;52.400;9.818;2023-07-13T12:24:04;2.00;;;0.60;;
1947;SDS011;974;52.400;9.818;2023-07-13T12:26:38;2.00;;;0.60;;
1947;SDS011;974;52.400;9.818;2023-07-13T12:29:04;2.00;;;0.60;;
1947;SDS011;974;52.400;9.818;2023-07-13T12:31:37;2.00;;;0.60;;
1947;SDS011;974;52.400;9.818;2023-07-13T12:34:10;2.00;;;0.60;;
1947;SDS011;974;52.400;9.818;2023-07-13T12:36:38;2.00;;;0.60;;
1947;SDS011;974;52.400;9.818;2023-07-13T12:39:14;2.00;;;0.60;;
1947;SDS011;974;52.400;9.818;2023-07-13T12:41:43;2.00;;;0.60;;
1947;SDS011;974;52.400;9.818;2023-07-13T12:44:29;2.00;;;0.60;;
1947;SDS011;974;52.400;9.818;2023-07-13T12:47:03;2.00;;;0.60;;
1947;SDS011;974;52.400;9.818;2023-07-13T12:49:33;2.00;;;0.60;;
1947;SDS011;974;52.400;9.818;2023-07-13T12:52:02;2.00;;;0.60;;
1947;SDS011;974;52.400;9.818;2023-07-13T12:54:29;2.00;;;0.60;;
1947;SDS011;974;52.400;9.818;2023-07-13T12:56:56;2.00;;;0.60;;
1947;SDS011;974;52.400;9.818;2023-07-13T12:59:24;2.00;;;0.60;;
1947;SDS011;974;52.400;9.818;2023-07-13T13:01:54;2.00;;;0.60;;
1947;SDS011;974;52.400;9.818;2023-07-13T13:04:19;2.00;;;0.60;;
1947;SDS011;974;52.400;9.818;2023-07-13T13:06:46;2.00;;;0.60;;
1947;SDS011;974;52.400;9.818;2023-07-13T13:09:13;2.00;;;0.60;;
1947;SDS011;974;52.400;9.818;2023-07-13T13:11:41;2.00;;;0.60;;
1947;SDS011;974;52.400;9.818;2023-07-13T13:14:07;2.00;;;0.60;;
1947;SDS011;974;52.400;9.818;2023-07-13T13:16:35;2.00;;;0.60;;
1947;SDS011;974;52.400;9.818;2023-07-13T13:19:14;2.00;;;0.60;;
1947;SDS011;974;52.400;9.818;2023-07-13T13:21:42;2.00;;;0.60;;
1947;SDS011;974;52.400;9.818;2023-07-13T13:24:13;1.93;;;0.60;;
1947;SDS011;974;52.400;9.818;2023-07-13T13:26:41;2.00;;;0.60;;
1947;SDS011;974;52.400;9.818;2023-07-13T13:29:15;1.90;;;0.60;;
1947;SDS011;974;52.400;9.818;2023-07-13T13:31:43;2.00;;;0.60;;
1947;SDS011;974;52.400;9.818;2023-07-13T13:34:10;2.00;;;0.60;;
1947;SDS011;974;52.400;9.818;2023-07-13T13:36:37;2.00;;;0.60;;
1947;SDS011;974;52.400;9.818;2023-07-13T13:39:05;1.90;;;0.60;;
1947;SDS011;974;52.400;9.818;2023-07-13T13:41:41;2.00;;;0.60;;
1947;SDS011;974;52.400;9.818;2023-07-13T13:44:08;1.93;;;0.60;;
1947;SDS011;974;52.400;9.818;2023-07-13T13:46:35;1.90;;;0.60;;
1947;SDS011;974;52.400;9.818;2023-07-13T13:49:01;1.90;;;0.60;;
1947;SDS011;974;52.400;9.818;2023-07-13T13:51:27;1.90;;;0.60;;
1947;SDS011;974;52.400;9.818;2023-07-13T13:53:54;1.90;;;0.60;;
1947;SDS011;974;52.400;9.818;2023-07-13T13:56:19;1.90;;;0.60;;
1947;SDS011;974;52.400;9.818;2023-07-13T13:58:45;1.97;;;0.60;;
1947;SDS011;974;52.400;9.818;2023-07-13T14:01:18;1.90;;;0.60;;
1947;SDS011;974;52.400;9.818;2023-07-13T14:03:46;2.00;;;0.60;;
1947;SDS011;974;52.400;9.818;2023-07-13T14:06:14;1.90;;;0.60;;
1947;SDS011;974;52.400;9.818;2023-07-13T14:08:40;1.90;;;0.60;;
1947;SDS011;974;52.400;9.818;2023-07-13T14:11:07;1.90;;;0.60;;
1947;SDS011;974;52.400;9.818;2023-07-13T14:13:39;1.90;;;0.60;;
1947;SDS011;974;52.400;9.818;2023-07-13T14:16:31;1.90;;;0.60;;
1947;SDS011;974;52.400;9.818;2023-07-13T14:18:58;1.90;;;0.60;;
1947;SDS011;974;52.400;9.818;2023-07-13T14:21:25;1.90;;;0.60;;
1947;SDS011;974;52.400;9.818;2023-07-13T14:23:51;1.90;;;0.60;;
1947;SDS011;974;52.400;9.818;2023-07-13T14:26:18;1.90;;;0.60;;
1947;SDS011;974;52.400;9.818;2023-07-13T14:28:49;1.90;;;0.60;;
1947;SDS011;974;52.400;9.818;2023-07-13T14:31:17;1.90;;;0.60;;
1947;SDS011;974;52.400;9.818;2023-07-13T14:33:46;1.90;;;0.60;;
1947;SDS011;974;52.400;9.818;2023-07-13T14:38:52;1.90;;;0.60;;
1947;SDS011;974;52.400;9.818;2023-07-13T14:41:18;1.90;;;0.60;;
1947;SDS011;974;52.400;9.818;2023-07-13T14:43:45;1.90;;;0.60;;
1947;SDS011;974;52.400;9.818;2023-07-13T14:46:16;1.90;;;0.60;;
1947;SDS011;974;52.400;9.818;2023-07-13T14:48:51;1.90;;;0.60;;
1947;SDS011;974;52.400;9.818;2023-07-13T14:51:19;1.90;;;0.60;;
1947;SDS011;974;52.400;9.818;2023-07-13T14:53:46;1.90;;;0.60;;
1947;SDS011;974;52.400;9.818;2023-07-13T14:56:11;1.90;;;0.60;;
1947;SDS011;974;52.400;9.818;2023-07-13T14:58:37;1.90;;;0.60;;
1947;SDS011;974;52.400;9.818;2023-07-13T15:01:07;1.92;;;0.60;;
1947;SDS011;974;52.400;9.818;2023-07-13T15:03:38;1.90;;;0.60;;
1947;SDS011;974;52.400;9.818;2023-07-13T15:06:13;1.98;;;0.60;;
1947;SDS011;974;52.400;9.818;2023-07-13T15:08:39;1.90;;;0.60;;
1947;SDS011;974;52.400;9.818;2023-07-13T15:11:06;1.90;;;0.60;;
1947;SDS011;974;52.400;9.818;2023-07-13T15:13:32;1.90;;;0.60;;
1947;SDS011;974;52.400;9.818;2023-07-13T15:15:59;1.90;;;0.60;;
1947;SDS011;974;52.400;9.818;2023-07-13T15:18:25;1.90;;;0.60;;
1947;SDS011;974;52.400;9.818;2023-07-13T15:20:52;1.90;;;0.60;;
1947;SDS011;974;52.400;9.818;2023-07-13T15:23:21;1.90;;;0.60;;
1947;SDS011;974;52.400;9.818;2023-07-13T15:25:47;1.90;;;0.60;;
1947;SDS011;974;52.400;9.818;2023-07-13T15:28:13;1.90;;;0.60;;
1947;SDS011;974;52.400;9.818;2023-07-13T15:30:40;1.90;;;0.60;;
1947;SDS011;974;52.400;9.818;2023-07-13T15:33:12;1.90;;;0.60;;
1947;SDS011;974;52.400;9.818;2023-07-13T15:35:45;1.90;;;0.60;;
1947;SDS011;974;52.400;9.818;2023-07-13T15:38:16;1.90;;;0.60;;
1947;SDS011;974;52.400;9.818;2023-07-13T15:40:43;1.90;;;0.60;;
1947;SDS011;974;52.400;9.818;2023-07-13T15:43:12;1.90;;;0.60;;
1947;SDS011;974;52.400;9.818;2023-07-13T15:45:39;1.90;;;0.60;;
1947;SDS011;974;52.400;9.818;2023-07-13T15:48:12;1.90;;;0.60;;
1947;SDS011;974;52.400;9.818;2023-07-13T15:50:44;1.90;;;0.60;;
1947;SDS011;974;52.400;9.818;2023-07-13T15:53:12;2.00;;;0.80;;
1947;SDS011;974;52.400;9.818;2023-07-13T15:55:39;1.90;;;0.60;;
1947;SDS011;974;52.400;9.818;2023-07-13T15:58:07;1.90;;;0.60;;
1947;SDS011;974;52.400;9.818;2023-07-13T16:00:36;1.90;;;0.60;;